Montmartre, Canada
Current Conditions -  °F | °C
As of 2:00 AM on Thursday 23 Oct 2014 (Local Time) from CYQR Reporting Station
Clear Clear  
Wind Chill: 32°   Ceiling: Unl
Heat Index: 36°   Visibility: 15mi
Dew Point: 34°   Wind: 5mph
Humidity: 93%   Direction: 230°SW
Pressure: 29.78"   Gusts: NA
Location:  50.22°N, 103.45°W
Report Text: CYQR 230800Z 23004KT 15SM SKC 02/01 A2978 RMK SLP102
Loading
Personal Weather Stations






























Interactive Weather Map
Tropical Storm Tracking
New forecast layout! Learn more

10-Day Weather Forecast

Advertisements
Track Severe Weather on mobile